Time;durP1;ratioP1;P1;durP2;ratioP2;P2;SDS_P1;SDS_P2;PMS_P1;PMS_P2;Temp;Humidity;BMP_temperature;BMP_pressure;BME280_temperature;BME280_humidity;BME280_pressure;Samples;Min_cycle;Max_cycle;Signal;HPM_P1;HPM_P2
2022/03/12 00:00:00;;;;;;;6.97;5.00;;;;;;;-1.88;100.00;101566.47;5061341;28;20195;-74
2022/03/12 00:02:29;;;;;;;8.10;5.27;;;;;;;-2.02;100.00;101551.66;5072951;28;20198;-75
2022/03/12 00:04:56;;;;;;;13.67;5.93;;;;;;;-1.92;100.00;101572.03;5057891;28;20654;-74
2022/03/12 00:07:26;;;;;;;9.47;5.57;;;;;;;-1.90;100.00;101573.06;5071499;28;20203;-75
2022/03/12 00:09:54;;;;;;;12.43;5.87;;;;;;;-2.14;100.00;101535.34;5066646;28;20573;-75
2022/03/12 00:12:22;;;;;;;11.20;5.57;;;;;;;-2.03;100.00;101563.47;5071982;28;20223;-75
2022/03/12 00:14:49;;;;;;;13.07;5.00;;;;;;;-2.33;100.00;101506.53;5063925;28;20261;-75
2022/03/12 00:17:18;;;;;;;10.63;5.23;;;;;;;-1.98;100.00;101566.41;5053226;28;20188;-75
2022/03/12 00:19:45;;;;;;;8.73;5.47;;;;;;;-2.00;100.00;101576.44;5064039;28;20244;-75
2022/03/12 00:22:13;;;;;;;10.37;5.23;;;;;;;-2.04;100.00;101568.44;5052766;28;20190;-74
2022/03/12 00:24:44;;;;;;;14.10;7.77;;;;;;;-1.97;100.00;101560.59;5053068;28;20188;-74
2022/03/12 00:27:11;;;;;;;10.17;6.90;;;;;;;-2.01;100.00;101582.28;5072668;28;20195;-75
2022/03/12 00:29:38;;;;;;;14.07;7.27;;;;;;;-2.04;100.00;101591.28;5072444;28;20252;-75
2022/03/12 00:32:06;;;;;;;16.80;8.00;;;;;;;-2.32;100.00;101536.25;5056425;28;20219;-75
2022/03/12 00:34:34;;;;;;;4.20;3.07;;;;;;;-2.14;100.00;101587.03;5052600;28;20246;-74
2022/03/12 00:37:01;;;;;;;5.80;3.57;;;;;;;-2.31;100.00;101558.34;5052647;28;20205;-74
2022/03/12 00:39:28;;;;;;;7.60;3.50;;;;;;;-2.31;100.00;101576.13;5052638;28;20199;-75
2022/03/12 00:41:56;;;;;;;4.40;3.63;;;;;;;-2.31;100.00;101587.16;5066453;28;20206;-73
2022/03/12 00:44:23;;;;;;;3.97;3.57;;;;;;;-2.79;100.00;101512.59;5057323;28;20199;-75
2022/03/12 00:46:50;;;;;;;6.07;3.67;;;;;;;-2.42;100.00;101575.16;5059658;28;20217;-73
2022/03/12 00:49:18;;;;;;;3.70;3.33;;;;;;;-2.40;100.00;101581.28;5052869;28;20203;-75
2022/03/12 00:51:45;;;;;;;3.93;3.43;;;;;;;-2.66;100.00;101535.78;5052203;28;20215;-74
2022/03/12 00:54:11;;;;;;;8.40;3.87;;;;;;;-2.52;100.00;101572.56;5067052;28;20293;-74
2022/03/12 00:56:39;;;;;;;4.17;3.77;;;;;;;-2.49;100.00;101580.44;5069815;28;20198;-75
2022/03/12 00:59:08;;;;;;;5.50;3.47;;;;;;;-2.50;100.00;101579.53;5053636;28;20215;-73
2022/03/12 01:01:35;;;;;;;4.33;3.47;;;;;;;-2.99;100.00;101492.13;5066587;28;20190;-74
2022/03/12 01:04:02;;;;;;;4.53;3.47;;;;;;;-2.91;100.00;101526.69;5070401;28;20222;-74
2022/03/12 01:06:29;;;;;;;7.17;5.17;;;;;;;-2.68;100.00;101572.81;5069079;28;20203;-74
2022/03/12 01:08:56;;;;;;;6.47;4.30;;;;;;;-2.72;100.00;101568.22;5052493;28;20198;-74
2022/03/12 01:11:23;;;;;;;7.77;3.17;;;;;;;-2.87;100.00;101554.13;5055795;28;20200;-74
2022/03/12 01:13:49;;;;;;;9.00;5.93;;;;;;;-2.75;100.00;101569.59;5052827;28;20200;-73
2022/03/12 01:16:18;;;;;;;3.90;3.50;;;;;;;-2.80;100.00;101576.78;5052868;28;20210;-74
2022/03/12 01:18:45;;;;;;;7.97;4.53;;;;;;;-2.83;100.00;101579.03;5070725;28;20285;-75
2022/03/12 01:21:17;;;;;;;8.30;5.43;;;;;;;-3.04;100.00;101549.16;5070075;28;20198;-75
2022/03/12 01:23:44;;;;;;;7.10;5.00;;;;;;;-3.03;100.00;101561.97;5059607;28;20203;-74
2022/03/12 01:26:12;;;;;;;6.90;4.60;;;;;;;-2.90;100.00;101585.94;5052080;28;20203;-73
2022/03/12 01:28:39;;;;;;;4.13;3.00;;;;;;;-3.19;100.00;101540.16;5052366;28;20321;-75
2022/03/12 01:31:07;;;;;;;2.27;2.07;;;;;;;-3.08;100.00;101586.03;5064076;28;20218;-75
2022/03/12 01:33:35;;;;;;;12.10;4.83;;;;;;;-3.14;100.00;101579.50;5051529;28;20606;-75
2022/03/12 01:36:02;;;;;;;4.23;3.37;;;;;;;-3.16;100.00;101586.06;5051213;28;20199;-75
2022/03/12 01:38:32;;;;;;;5.83;4.70;;;;;;;-3.13;100.00;101588.88;5051900;28;20256;-74
2022/03/12 01:41:03;;;;;;;5.80;4.17;;;;;;;-3.24;100.00;101587.00;5058881;28;20209;-73
2022/03/12 01:43:32;;;;;;;6.50;3.33;;;;;;;-3.24;100.00;101595.50;5069829;28;20201;-75
2022/03/12 01:46:01;;;;;;;8.57;5.57;;;;;;;-3.34;100.00;101595.41;5052993;28;20318;-73
2022/03/12 01:48:30;;;;;;;3.83;2.50;;;;;;;-3.38;100.00;101574.66;5054977;28;20567;-74
2022/03/12 01:50:59;;;;;;;10.17;6.43;;;;;;;-3.27;100.00;101601.94;5058784;28;20308;-75
2022/03/12 01:53:27;;;;;;;1.93;1.83;;;;;;;-3.32;100.00;101581.25;5070712;28;20237;-73
2022/03/12 01:55:55;;;;;;;7.13;5.40;;;;;;;-3.26;100.00;101596.13;5055304;28;20223;-75
2022/03/12 01:58:24;;;;;;;8.47;5.63;;;;;;;-3.28;100.00;101597.63;5067511;28;20191;-76
2022/03/12 02:00:53;;;;;;;6.13;4.60;;;;;;;-3.56;100.00;101564.59;5064578;28;20693;-76
2022/03/12 02:03:23;;;;;;;11.13;5.87;;;;;;;-3.32;100.00;101603.16;5070944;28;20677;-74
2022/03/12 02:05:51;;;;;;;8.00;5.47;;;;;;;-3.37;100.00;101601.81;5070949;28;20191;-75
2022/03/12 02:08:19;;;;;;;6.63;4.57;;;;;;;-3.35;100.00;101596.13;5061986;28;20230;-75
2022/03/12 02:10:49;;;;;;;9.07;5.40;;;;;;;-3.29;100.00;101598.38;5055346;28;20253;-75
2022/03/12 02:13:16;;;;;;;3.90;3.30;;;;;;;-3.51;100.00;101587.84;5061648;28;20222;-74
2022/03/12 02:15:43;;;;;;;6.67;5.10;;;;;;;-3.81;100.00;101555.44;5071243;28;20644;-74
2022/03/12 02:18:13;;;;;;;9.97;5.90;;;;;;;-3.63;100.00;101591.75;5070478;28;20249;-75
2022/03/12 02:20:40;;;;;;;7.47;5.23;;;;;;;-3.64;100.00;101595.06;5055815;28;20205;-74
2022/03/12 02:23:09;;;;;;;9.60;5.40;;;;;;;-3.71;100.00;101580.88;5070992;28;20614;-75
2022/03/12 02:25:37;;;;;;;10.10;5.90;;;;;;;-4.01;100.00;101534.94;5071186;28;20190;-76
2022/03/12 02:28:16;;;;;;;10.23;5.73;;;;;;;-3.57;100.00;101607.56;5057235;28;20203;-74
2022/03/12 02:30:47;;;;;;;8.80;5.90;;;;;;;-4.01;100.00;101590.66;5053717;28;20673;-75
2022/03/12 02:33:15;;;;;;;9.93;6.03;;;;;;;-3.70;100.00;101615.63;5071151;28;20237;-74
2022/03/12 02:35:44;;;;;;;12.23;7.13;;;;;;;-3.67;100.00;101575.38;5070642;28;20191;-75
2022/03/12 02:38:12;;;;;;;11.00;5.73;;;;;;;-3.67;100.00;101603.25;5070654;28;20248;-75
2022/03/12 02:40:42;;;;;;;9.83;6.30;;;;;;;-3.56;100.00;101615.28;5064387;28;20199;-75
2022/03/12 02:43:13;;;;;;;8.67;6.03;;;;;;;-3.84;100.00;101589.72;5060942;28;20191;-76
2022/03/12 02:45:41;;;;;;;7.60;5.57;;;;;;;-3.62;100.00;101614.72;5068798;28;20670;-76
2022/03/12 02:48:09;;;;;;;13.23;6.23;;;;;;;-3.66;100.00;101599.06;5071102;28;20194;-74
2022/03/12 02:50:36;;;;;;;11.13;6.60;;;;;;;-3.57;100.00;101623.63;5067580;28;20202;-73
2022/03/12 02:53:03;;;;;;;10.73;5.90;;;;;;;-3.53;100.00;101628.25;5074208;28;20653;-75
2022/03/12 02:55:35;;;;;;;8.10;6.53;;;;;;;-3.71;100.00;101616.34;5064229;28;20547;-75
2022/03/12 02:58:09;;;;;;;10.20;6.20;;;;;;;-3.43;100.00;101626.59;5054808;28;20595;-73
2022/03/12 03:00:37;;;;;;;10.27;7.33;;;;;;;-3.39;100.00;101628.69;5059923;28;20222;-73
2022/03/12 03:03:06;;;;;;;9.83;7.20;;;;;;;-3.42;100.00;101624.19;5072916;28;20191;-75
2022/03/12 03:05:46;;;;;;;14.43;8.00;;;;;;;-3.33;100.00;101629.25;5074205;28;20248;-73
2022/03/12 03:08:18;;;;;;;16.13;7.63;;;;;;;-3.43;100.00;101624.97;5074085;28;20202;-74
2022/03/12 03:10:46;;;;;;;13.80;8.67;;;;;;;-3.52;100.00;101626.63;5060570;28;20240;-75
2022/03/12 03:13:33;;;;;;;14.90;8.73;;;;;;;-3.64;100.00;101585.78;5074238;28;20225;-76
2022/03/12 03:16:02;;;;;;;17.57;8.47;;;;;;;-3.33;100.00;101635.22;5074174;28;20199;-75
2022/03/12 03:18:31;;;;;;;19.07;8.07;;;;;;;-3.29;100.00;101644.00;5070579;28;20195;-76
2022/03/12 03:20:59;;;;;;;13.97;8.67;;;;;;;-3.29;100.00;101646.53;5061555;28;20613;-75
2022/03/12 03:23:30;;;;;;;11.77;8.13;;;;;;;-3.35;100.00;101645.97;5073755;28;20203;-75
2022/03/12 03:25:57;;;;;;;14.10;8.37;;;;;;;-3.45;100.00;101654.34;5074036;28;20215;-75
2022/03/12 03:28:25;;;;;;;12.50;7.63;;;;;;;-3.46;100.00;101661.81;5068556;28;20669;-73
2022/03/12 03:30:52;;;;;;;12.87;7.30;;;;;;;-3.45;100.00;101654.34;5060129;28;20578;-73
2022/03/12 03:33:21;;;;;;;12.30;7.27;;;;;;;-3.44;100.00;101646.00;5073498;28;20226;-74
2022/03/12 03:35:48;;;;;;;13.90;8.37;;;;;;;-3.88;100.00;101585.09;5073858;28;20195;-73
2022/03/12 03:38:16;;;;;;;14.27;8.90;;;;;;;-3.76;100.00;101602.38;5073916;28;20199;-75
2022/03/12 03:40:45;;;;;;;18.97;11.03;;;;;;;-3.74;100.00;101611.00;5065553;28;21073;-73
2022/03/12 03:43:13;;;;;;;18.27;10.27;;;;;;;-3.41;100.00;101655.50;5073345;28;20206;-74
2022/03/12 03:45:42;;;;;;;15.63;9.23;;;;;;;-3.39;100.00;101648.97;5068943;28;20636;-74
2022/03/12 03:48:12;;;;;;;17.67;8.20;;;;;;;-3.39;100.00;101644.78;5062111;28;20198;-75
2022/03/12 03:50:39;;;;;;;13.70;8.43;;;;;;;-3.37;100.00;101650.00;5068672;28;20240;-75
2022/03/12 03:53:06;;;;;;;18.67;8.47;;;;;;;-3.32;100.00;101646.25;5053421;28;20306;-75
2022/03/12 03:55:34;;;;;;;16.30;8.13;;;;;;;-3.37;100.00;101643.28;5053735;28;20199;-74
2022/03/12 03:58:03;;;;;;;18.67;9.03;;;;;;;-3.39;100.00;101639.72;5053862;28;20191;-76
2022/03/12 04:00:31;;;;;;;16.90;8.73;;;;;;;-3.20;100.00;101662.63;5054061;28;20275;-74
2022/03/12 04:03:02;;;;;;;28.17;11.53;;;;;;;-3.45;100.00;101617.94;5071508;28;20199;-74
2022/03/12 04:05:30;;;;;;;29.67;12.30;;;;;;;-3.30;100.00;101654.91;5069795;28;20210;-76
2022/03/12 04:07:58;;;;;;;28.03;15.30;;;;;;;-3.14;100.00;101663.22;5051624;28;20829;-75
2022/03/12 04:10:25;;;;;;;22.13;9.97;;;;;;;-3.02;100.00;101669.41;5056566;28;20446;-75
2022/03/12 04:12:52;;;;;;;16.03;9.23;;;;;;;-3.08;100.00;101663.78;5067884;28;20310;-74
2022/03/12 04:15:19;;;;;;;18.10;9.27;;;;;;;-3.10;100.00;101665.25;5052886;28;20290;-75
2022/03/12 04:17:47;;;;;;;17.43;8.77;;;;;;;-3.11;100.00;101668.56;5054693;28;20195;-74
2022/03/12 04:20:18;;;;;;;14.33;9.23;;;;;;;-3.12;100.00;101666.78;5072945;28;20190;-74
2022/03/12 04:22:45;;;;;;;22.27;11.80;;;;;;;-3.30;100.00;101663.41;5033584;28;20200;-74
2022/03/12 04:25:12;;;;;;;25.00;14.03;;;;;;;-3.26;100.00;101662.94;5037200;28;20287;-73
2022/03/12 04:27:42;;;;;;;35.60;16.47;;;;;;;-3.35;100.00;101651.91;5071164;28;20199;-74
2022/03/12 04:30:11;;;;;;;30.23;12.23;;;;;;;-3.20;100.00;101670.22;5070900;28;20278;-75
2022/03/12 04:32:38;;;;;;;21.77;13.00;;;;;;;-3.56;100.00;101605.16;5053296;28;20196;-77
2022/03/12 04:35:06;;;;;;;19.30;11.03;;;;;;;-3.53;100.00;101613.03;5068513;28;20670;-75
2022/03/12 04:37:35;;;;;;;19.77;10.17;;;;;;;-3.14;100.00;101679.28;5033119;28;20200;-75
2022/03/12 04:40:03;;;;;;;23.27;9.70;;;;;;;-3.15;100.00;101684.25;5053156;28;20195;-78
2022/03/12 04:42:30;;;;;;;17.57;9.23;;;;;;;-3.12;100.00;101684.53;5051890;28;20195;-73
2022/03/12 04:44:57;;;;;;;21.30;10.17;;;;;;;-3.10;100.00;101677.94;5052228;28;20249;-76
2022/03/12 04:47:24;;;;;;;29.23;11.07;;;;;;;-3.06;100.00;101680.91;5067944;28;20214;-75
2022/03/12 04:49:51;;;;;;;25.13;10.77;;;;;;;-3.06;100.00;101669.88;5057937;28;20233;-74
2022/03/12 04:52:20;;;;;;;22.57;10.07;;;;;;;-3.19;100.00;101659.34;5052197;28;20219;-75
2022/03/12 04:54:48;;;;;;;24.27;12.67;;;;;;;-3.00;100.00;101683.16;5052308;28;20227;-75
2022/03/12 04:57:15;;;;;;;23.90;11.97;;;;;;;-2.98;100.00;101684.19;5067405;28;20197;-75
2022/03/12 04:59:43;;;;;;;28.70;14.83;;;;;;;-2.86;100.00;101692.94;5072330;28;20503;-74
2022/03/12 05:02:13;;;;;;;32.43;15.13;;;;;;;-2.72;100.00;101690.06;5070277;28;20199;-74
2022/03/12 05:04:39;;;;;;;31.47;15.37;;;;;;;-2.69;100.00;101682.72;5070327;28;20278;-76
2022/03/12 05:07:08;;;;;;;40.37;21.00;;;;;;;-2.86;100.00;101637.13;5062736;28;20207;-73
2022/03/12 05:09:35;;;;;;;46.63;26.40;;;;;;;-2.69;100.00;101681.81;5071572;28;20187;-73
2022/03/12 05:12:05;;;;;;;88.70;42.60;;;;;;;-2.83;100.00;101677.09;5070696;28;20593;-73
2022/03/12 05:14:35;;;;;;;64.37;30.63;;;;;;;-2.78;100.00;101630.22;5072525;28;20317;-76
2022/03/12 05:17:04;;;;;;;84.13;41.57;;;;;;;-2.42;100.00;101686.00;5069559;28;20195;-75
2022/03/12 05:19:35;;;;;;;119.20;47.80;;;;;;;-2.33;100.00;101697.00;5071404;28;20690;-75
2022/03/12 05:22:03;;;;;;;153.37;59.60;;;;;;;-2.34;100.00;101697.75;5071847;28;20198;-74
2022/03/12 05:24:30;;;;;;;178.67;76.33;;;;;;;-2.57;100.00;101672.81;5064090;28;20630;-73
2022/03/12 05:26:59;;;;;;;119.13;47.97;;;;;;;-2.88;100.00;101580.25;5064947;28;20195;-76
2022/03/12 05:29:29;;;;;;;45.03;21.33;;;;;;;-1.99;100.00;101706.94;5059610;28;20196;-76
2022/03/12 05:31:55;;;;;;;43.43;23.00;;;;;;;-2.08;100.00;101678.16;5064006;28;20199;-74
2022/03/12 05:34:23;;;;;;;115.17;57.00;;;;;;;-2.15;100.00;101652.97;5057980;28;20228;-76
2022/03/12 05:36:50;;;;;;;96.93;48.80;;;;;;;-1.87;100.00;101695.34;5061384;28;20231;-76
2022/03/12 05:39:17;;;;;;;54.30;26.60;;;;;;;-1.70;100.00;101707.91;5058349;28;20195;-75
2022/03/12 05:41:49;;;;;;;50.93;27.07;;;;;;;-1.80;100.00;101672.25;5060556;28;20191;-75
2022/03/12 05:44:16;;;;;;;46.47;25.73;;;;;;;-1.51;100.00;101711.31;5061697;28;20286;-75
2022/03/12 05:46:44;;;;;;;48.00;19.37;;;;;;;-1.30;100.00;101712.31;5068335;28;20671;-72
2022/03/12 05:49:11;;;;;;;42.27;25.10;;;;;;;-0.96;100.00;101702.53;5063591;28;20297;-76
2022/03/12 05:51:38;;;;;;;33.43;14.30;;;;;;;-1.08;100.00;101713.44;5051354;28;20571;-72
2022/03/12 05:54:05;;;;;;;20.87;10.93;;;;;;;-1.53;100.00;101651.78;5066969;28;20229;-74
2022/03/12 05:56:32;;;;;;;26.27;14.37;;;;;;;-1.57;100.00;101682.78;5068624;28;20197;-76
2022/03/12 05:58:58;;;;;;;73.40;34.00;;;;;;;-1.31;100.00;101722.34;5065865;28;20191;-74
2022/03/12 06:01:25;;;;;;;66.87;29.53;;;;;;;-1.38;100.00;101694.59;5060846;28;20192;-77
2022/03/12 06:03:55;;;;;;;63.83;27.33;;;;;;;-0.97;100.00;101721.09;5060716;28;20677;-75
2022/03/12 06:06:32;;;;;;;39.27;16.10;;;;;;;-1.07;100.00;101724.53;5071300;28;20587;-76
2022/03/12 06:08:59;;;;;;;30.10;17.40;;;;;;;-0.84;100.00;101734.13;5058070;28;20635;-76
2022/03/12 06:11:27;;;;;;;32.47;18.50;;;;;;;-0.61;99.70;101730.22;5051256;28;20199;-78
2022/03/12 06:14:00;;;;;;;19.60;11.53;;;;;;;-0.78;98.60;101682.06;5051044;28;20219;-82
2022/03/12 06:16:27;;;;;;;19.50;11.00;;;;;;;-0.53;97.31;101730.88;5038908;28;20199;-77
2022/03/12 06:18:55;;;;;;;14.93;8.70;;;;;;;-0.56;94.89;101723.88;5052088;28;20688;-78
2022/03/12 06:21:22;;;;;;;10.07;6.80;;;;;;;-0.03;100.00;101728.38;5051444;28;20648;-77
2022/03/12 06:23:49;;;;;;;14.23;7.53;;;;;;;0.18;95.80;101743.69;5071472;28;20664;-76
2022/03/12 06:26:22;;;;;;;6.50;5.10;;;;;;;-0.23;88.84;101736.03;5058265;28;20684;-77
2022/03/12 06:28:49;;;;;;;15.50;8.70;;;;;;;-0.03;88.51;101755.53;5050624;28;20192;-78
2022/03/12 06:31:16;;;;;;;15.90;8.93;;;;;;;-0.11;88.00;101756.56;5054143;28;20203;-76
2022/03/12 06:33:43;;;;;;;50.73;24.23;;;;;;;0.02;87.77;101766.13;5065431;28;20230;-76
2022/03/12 06:36:12;;;;;;;21.60;10.03;;;;;;;-0.46;87.93;101704.31;5055230;28;20202;-77
2022/03/12 06:38:39;;;;;;;48.03;18.73;;;;;;;-0.32;88.61;101744.56;5048206;28;20220;-79
2022/03/12 06:41:06;;;;;;;204.07;73.17;;;;;;;-0.12;88.59;101762.44;5037093;28;20302;-74
2022/03/12 06:43:33;;;;;;;38.97;15.47;;;;;;;-0.43;88.97;101704.56;5055228;28;20206;-76
2022/03/12 06:46:02;;;;;;;42.93;15.53;;;;;;;-0.07;91.22;101759.50;5054650;28;20224;-77
2022/03/12 06:48:29;;;;;;;52.87;20.93;;;;;;;-0.41;92.25;101710.66;5054864;28;20230;-76
2022/03/12 06:50:56;;;;;;;33.30;12.33;;;;;;;0.06;91.47;101768.16;5074146;28;20201;-75
2022/03/12 06:53:25;;;;;;;44.20;15.37;;;;;;;0.06;91.54;101770.72;5055994;28;20705;-77
2022/03/12 06:55:52;;;;;;;37.73;13.23;;;;;;;-0.26;92.62;101691.56;5054503;28;20191;-76
2022/03/12 06:58:19;;;;;;;60.97;18.03;;;;;;;0.33;97.54;101753.47;5055697;28;20234;-75
2022/03/12 07:00:45;;;;;;;39.53;17.70;;;;;;;0.70;96.35;101771.78;5071966;28;20191;-75
2022/03/12 07:03:12;;;;;;;46.33;16.07;;;;;;;0.55;91.43;101760.34;5074710;28;20214;-79
2022/03/12 07:05:39;;;;;;;22.07;10.23;;;;;;;0.64;90.56;101766.22;5062716;28;20195;-80
2022/03/12 07:08:06;;;;;;;20.87;9.10;;;;;;;0.56;87.93;101751.94;5038425;28;20752;-77
2022/03/12 07:10:35;;;;;;;31.13;13.43;;;;;;;0.28;88.56;101688.47;5035287;28;20196;-80
2022/03/12 07:13:01;;;;;;;147.80;54.57;;;;;;;0.39;87.62;101708.06;5036220;28;20196;-73
2022/03/12 07:15:29;;;;;;;10.97;5.07;;;;;;;0.70;83.07;101774.34;5053628;28;20227;-75
2022/03/12 07:17:55;;;;;;;16.40;8.10;;;;;;;0.70;95.37;101770.16;5012257;28;22201;-73
2022/03/12 07:20:23;;;;;;;17.40;8.33;;;;;;;1.03;100.00;101765.97;5051888;28;20253;-73
2022/03/12 07:22:50;;;;;;;18.93;8.73;;;;;;;0.64;98.84;101710.97;5053567;28;20257;-73
2022/03/12 07:25:18;;;;;;;13.20;6.90;;;;;;;1.03;83.56;101769.41;5062420;28;20218;-74
2022/03/12 07:27:46;;;;;;;29.47;10.27;;;;;;;0.89;78.51;101775.06;5073515;28;20199;-75
2022/03/12 07:30:15;;;;;;;44.23;16.90;;;;;;;1.01;77.39;101770.94;5057406;28;20231;-74
2022/03/12 07:32:43;;;;;;;153.87;60.73;;;;;;;0.93;74.58;101779.63;5053854;28;20203;-74
2022/03/12 07:35:12;;;;;;;51.67;21.43;;;;;;;0.76;75.05;101777.38;5052855;28;20230;-73
2022/03/12 07:37:39;;;;;;;49.67;16.43;;;;;;;0.59;75.97;101782.78;5056172;28;20205;-75
2022/03/12 07:40:06;;;;;;;18.23;7.87;;;;;;;0.09;79.36;101766.78;5031834;28;20265;-78
2022/03/12 07:42:34;;;;;;;47.73;14.07;;;;;;;0.84;100.00;101776.34;5053880;28;20207;-73
2022/03/12 07:45:02;;;;;;;27.73;10.73;;;;;;;0.73;89.18;101785.69;5050348;28;20259;-73
2022/03/12 07:47:29;;;;;;;42.23;14.17;;;;;;;0.84;87.02;101789.13;5051587;28;20272;-74
2022/03/12 07:49:55;;;;;;;24.90;10.43;;;;;;;1.08;94.54;101780.88;5053011;28;20199;-77
2022/03/12 07:52:22;;;;;;;25.20;9.90;;;;;;;1.04;80.63;101791.59;5056265;28;20600;-73
2022/03/12 07:54:49;;;;;;;44.50;14.27;;;;;;;0.78;77.77;101798.84;5052539;28;20593;-75
2022/03/12 07:57:16;;;;;;;39.73;12.87;;;;;;;0.79;76.94;101778.53;5068559;28;20191;-80
2022/03/12 07:59:44;;;;;;;51.90;15.03;;;;;;;0.99;82.02;101798.91;5071095;28;20622;-72
2022/03/12 08:02:12;;;;;;;40.33;12.47;;;;;;;1.36;100.00;101766.94;5073502;28;20195;-76
2022/03/12 08:04:39;;;;;;;10.40;5.00;;;;;;;0.78;81.09;101796.28;5062182;28;20590;-76
2022/03/12 08:07:06;;;;;;;61.73;19.70;;;;;;;0.12;75.46;101704.91;5052858;28;20195;-74
2022/03/12 08:09:34;;;;;;;28.50;11.07;;;;;;;0.82;75.77;101799.19;5053356;28;20200;-76
2022/03/12 08:12:01;;;;;;;9.73;5.83;;;;;;;0.76;73.30;101798.72;5044355;28;20195;-76
2022/03/12 08:14:31;;;;;;;19.50;9.07;;;;;;;0.52;73.26;101791.63;5046117;28;20230;-75
2022/03/12 08:16:58;;;;;;;8.73;5.00;;;;;;;0.29;77.42;101787.16;5052859;28;20210;-76
2022/03/12 08:19:26;;;;;;;12.60;5.97;;;;;;;0.29;78.41;101793.91;5052240;28;20188;-75
2022/03/12 08:21:53;;;;;;;53.63;12.80;;;;;;;0.44;79.72;101798.63;5052696;28;20643;-74
2022/03/12 08:24:21;;;;;;;4.13;3.60;;;;;;;0.27;79.50;101796.34;5052819;28;20269;-75
2022/03/12 08:26:49;;;;;;;29.93;7.90;;;;;;;0.56;79.99;101800.41;5052830;28;20196;-74
2022/03/12 08:29:18;;;;;;;16.33;5.53;;;;;;;0.64;79.40;101791.72;5052280;28;20192;-76
2022/03/12 08:31:45;;;;;;;35.73;13.13;;;;;;;0.59;81.48;101798.09;5052551;28;20693;-74
2022/03/12 08:34:12;;;;;;;25.37;9.10;;;;;;;0.49;80.80;101776.94;5052338;28;20215;-75
2022/03/12 08:36:41;;;;;;;35.90;11.90;;;;;;;0.82;80.99;101809.41;5052819;28;20207;-74
2022/03/12 08:39:08;;;;;;;10.40;4.93;;;;;;;0.57;76.30;101733.31;5055143;28;20183;-75
2022/03/12 08:41:35;;;;;;;15.13;7.67;;;;;;;0.96;75.10;101762.03;5066602;28;20202;-75
2022/03/12 08:44:02;;;;;;;33.03;12.27;;;;;;;1.28;74.95;101798.69;5051841;28;20227;-74
2022/03/12 08:46:28;;;;;;;31.90;13.43;;;;;;;1.09;75.05;101780.09;5036824;28;20243;-75
2022/03/12 08:48:55;;;;;;;60.03;22.23;;;;;;;1.10;74.11;101792.13;5032559;28;20268;-76
2022/03/12 08:51:22;;;;;;;19.27;9.00;;;;;;;1.09;76.19;101794.53;5051966;28;20207;-73
2022/03/12 08:53:50;;;;;;;16.20;8.70;;;;;;;1.04;74.33;101724.31;5051960;28;20203;-73
2022/03/12 08:56:17;;;;;;;34.40;14.97;;;;;;;1.57;73.38;101795.81;5052046;28;20207;-76
2022/03/12 08:58:44;;;;;;;14.40;6.83;;;;;;;1.50;70.94;101791.91;5051874;28;20195;-75
2022/03/12 09:01:12;;;;;;;16.60;7.50;;;;;;;1.31;72.36;101783.59;5052063;28;20693;-76
2022/03/12 09:03:40;;;;;;;13.77;6.80;;;;;;;1.41;70.52;101788.66;5052275;28;20199;-75
2022/03/12 09:06:08;;;;;;;23.40;9.50;;;;;;;1.34;67.65;101794.06;5051340;28;20269;-74
2022/03/12 09:08:35;;;;;;;23.73;9.77;;;;;;;1.16;66.24;101782.38;5050293;28;20200;-75
2022/03/12 09:11:03;;;;;;;9.60;6.40;;;;;;;0.86;64.83;101759.50;5051045;28;20195;-75
2022/03/12 09:13:30;;;;;;;11.23;5.87;;;;;;;1.71;93.57;101786.69;5051784;28;20195;-76
2022/03/12 09:15:58;;;;;;;21.93;9.03;;;;;;;1.81;68.26;101800.31;5051878;28;20234;-76
2022/03/12 09:18:25;;;;;;;6.30;5.03;;;;;;;1.73;64.34;101800.47;5051798;28;20222;-76
2022/03/12 09:20:52;;;;;;;14.73;6.23;;;;;;;1.90;62.82;101795.00;5052053;28;20196;-75
2022/03/12 09:23:21;;;;;;;6.90;4.10;;;;;;;1.24;60.97;101714.91;5052049;28;20206;-76
2022/03/12 09:25:48;;;;;;;8.50;5.87;;;;;;;1.77;62.82;101792.28;5051902;28;20206;-75
2022/03/12 09:28:17;;;;;;;5.97;3.57;;;;;;;1.73;61.52;101796.25;5052374;28;20204;-75
2022/03/12 09:30:44;;;;;;;8.77;5.80;;;;;;;2.07;59.99;101792.03;5051522;28;20195;-75
2022/03/12 09:33:11;;;;;;;25.53;9.80;;;;;;;2.54;60.18;101792.16;5058508;28;20191;-74
2022/03/12 09:35:38;;;;;;;12.33;4.60;;;;;;;1.94;58.66;101756.09;5064994;28;20239;-76
2022/03/12 09:38:05;;;;;;;5.63;4.00;;;;;;;1.91;58.39;101791.66;5051206;28;20195;-75
2022/03/12 09:40:32;;;;;;;16.40;6.17;;;;;;;1.85;59.69;101781.88;5050826;28;20195;-75
2022/03/12 09:42:59;;;;;;;20.97;7.83;;;;;;;2.11;58.79;101791.50;5065899;28;20219;-75
2022/03/12 09:45:28;;;;;;;6.30;4.67;;;;;;;1.84;60.61;101789.41;5071248;28;20222;-76
2022/03/12 09:47:55;;;;;;;13.30;4.33;;;;;;;1.73;63.02;101787.69;5066832;28;20192;-71
2022/03/12 09:50:23;;;;;;;11.27;5.43;;;;;;;1.69;62.12;101778.00;5051477;28;20195;-74
2022/03/12 09:52:50;;;;;;;9.30;4.40;;;;;;;1.80;61.12;101778.06;5065405;28;20644;-74
2022/03/12 09:55:19;;;;;;;14.70;6.67;;;;;;;1.85;61.02;101770.75;5053444;28;20227;-73
2022/03/12 09:57:47;;;;;;;9.57;5.60;;;;;;;1.94;59.37;101777.44;5051048;28;20192;-73
2022/03/12 10:00:15;;;;;;;8.60;5.30;;;;;;;2.34;56.65;101776.22;5052189;28;20199;-74
2022/03/12 10:02:44;;;;;;;15.73;8.43;;;;;;;2.53;55.54;101754.56;5051535;28;20206;-74
2022/03/12 10:05:11;;;;;;;5.97;3.33;;;;;;;2.40;54.53;101775.78;5051322;28;20195;-75
2022/03/12 10:07:39;;;;;;;4.00;3.50;;;;;;;2.48;54.19;101775.59;5051191;28;20283;-77
2022/03/12 10:10:07;;;;;;;10.40;4.93;;;;;;;2.59;55.68;101785.72;5044471;28;20188;-76
2022/03/12 10:12:34;;;;;;;10.67;4.23;;;;;;;2.29;57.52;101772.44;5034598;28;20203;-77
2022/03/12 10:15:01;;;;;;;5.73;4.63;;;;;;;2.48;59.38;101777.25;5045706;28;20246;-72
2022/03/12 10:17:29;;;;;;;4.63;3.63;;;;;;;2.50;57.09;101770.56;5051092;28;20595;-75
2022/03/12 10:19:57;;;;;;;9.83;4.77;;;;;;;2.19;57.27;101769.97;5052833;28;20265;-75
2022/03/12 10:22:24;;;;;;;6.90;4.70;;;;;;;2.44;55.68;101773.56;5054347;28;20670;-75
2022/03/12 10:24:51;;;;;;;7.63;4.80;;;;;;;2.20;58.40;101758.06;5054355;28;20231;-73
2022/03/12 10:27:18;;;;;;;9.97;4.40;;;;;;;2.11;57.76;101735.22;5048463;28;20276;-74
2022/03/12 10:29:44;;;;;;;11.47;6.27;;;;;;;2.55;56.80;101751.31;5037655;28;20208;-72
2022/03/12 10:32:23;;;;;;;13.63;4.67;;;;;;;3.30;55.03;101748.25;5045667;28;20196;-75
2022/03/12 10:34:52;;;;;;;19.43;7.40;;;;;;;3.84;53.51;101750.31;5043867;28;20228;-73
2022/03/12 10:37:22;;;;;;;4.87;3.77;;;;;;;3.20;53.02;101709.06;5037710;28;20210;-73
2022/03/12 10:40:00;;;;;;;7.97;5.47;;;;;;;3.30;54.25;101720.06;5056619;28;20231;-74
2022/03/12 10:42:27;;;;;;;14.30;5.77;;;;;;;3.80;54.33;101745.75;5049627;28;20230;-72
2022/03/12 10:44:54;;;;;;;6.67;4.53;;;;;;;3.29;54.89;101730.19;5037255;28;20231;-73
2022/03/12 10:47:24;;;;;;;6.87;4.57;;;;;;;2.96;55.13;101711.66;5049671;28;20225;-71
2022/03/12 10:49:57;;;;;;;4.97;4.10;;;;;;;3.04;55.57;101740.38;5046346;28;20204;-74
2022/03/12 10:52:27;;;;;;;12.50;5.23;;;;;;;3.48;55.75;101736.72;5056618;28;20268;-73
2022/03/12 10:54:54;;;;;;;16.77;6.33;;;;;;;3.70;55.22;101739.09;5039719;28;20216;-74
2022/03/12 10:57:21;;;;;;;15.37;7.83;;;;;;;3.48;55.49;101733.28;5043985;28;20612;-73
2022/03/12 10:59:54;;;;;;;7.70;5.13;;;;;;;3.33;54.59;101735.66;5049727;28;20195;-75
2022/03/12 11:02:20;;;;;;;35.70;9.97;;;;;;;3.33;54.25;101740.78;5050967;28;20289;-73
2022/03/12 11:04:47;;;;;;;10.33;5.17;;;;;;;3.21;53.39;101734.78;5050635;28;20196;-74
2022/03/12 11:07:27;;;;;;;11.87;7.43;;;;;;;3.49;53.81;101741.09;5050886;28;20196;-74
2022/03/12 11:09:55;;;;;;;7.37;4.50;;;;;;;2.86;52.69;101733.94;5052255;28;20719;-74
2022/03/12 11:12:29;;;;;;;6.37;3.90;;;;;;;3.00;51.64;101734.16;5069515;28;20290;-74
2022/03/12 11:15:03;;;;;;;8.27;4.80;;;;;;;3.77;51.73;101732.72;5074395;28;20233;-74
2022/03/12 11:17:30;;;;;;;8.00;4.93;;;;;;;3.87;50.91;101732.56;5074130;28;20736;-74
2022/03/12 11:19:57;;;;;;;7.27;3.30;;;;;;;3.41;50.83;101736.19;5055333;28;20191;-74